createdAt,value
2023-02-01T00:00:59.794Z,99413.17
2023-02-01T00:03:33.660Z,99412.28
2023-02-01T00:06:06.801Z,99403.66
2023-02-01T00:08:39.568Z,99398.66
2023-02-01T00:11:14.204Z,99390.95
2023-02-01T00:13:47.484Z,99389.67
2023-02-01T00:16:24.372Z,99393.92
2023-02-01T00:19:09.938Z,99399.45
2023-02-01T00:21:43.487Z,99400.96
2023-02-01T00:24:16.844Z,99396.48
2023-02-01T00:26:49.887Z,99387.38
2023-02-01T00:29:23.943Z,99380.30
2023-02-01T00:31:56.540Z,99372.98
2023-02-01T00:34:30.090Z,99367.09
2023-02-01T00:37:03.178Z,99368.61
2023-02-01T00:39:36.078Z,99372.46
2023-02-01T00:42:09.595Z,99370.95
2023-02-01T00:44:42.619Z,99377.49
2023-02-01T00:47:16.353Z,99391.98
2023-02-01T00:49:49.336Z,99392.51
2023-02-01T00:52:22.378Z,99403.27
2023-02-01T00:54:55.647Z,99402.38
2023-02-01T00:57:28.701Z,99404.02
2023-02-01T01:00:01.638Z,99403.77
2023-02-01T01:02:35.150Z,99407.13
2023-02-01T01:05:09.513Z,99406.86
2023-02-01T01:07:44.245Z,99407.13
2023-02-01T01:10:18.114Z,99411.98
2023-02-01T01:12:52.133Z,99415.58
2023-02-01T01:15:25.095Z,99411.50
2023-02-01T01:17:58.286Z,99409.20
2023-02-01T01:20:32.296Z,99411.23
2023-02-01T01:23:05.476Z,99401.86
2023-02-01T01:25:44.141Z,99396.23
2023-02-01T01:28:17.078Z,99396.98
2023-02-01T01:30:50.198Z,99398.01
2023-02-01T01:33:23.313Z,99392.21
2023-02-01T01:35:56.284Z,99391.19
2023-02-01T01:38:29.366Z,99386.72
2023-02-01T01:41:02.872Z,99384.91
2023-02-01T01:44:02.241Z,99396.98
2023-02-01T01:46:39.005Z,99402.74
2023-02-01T01:49:24.381Z,99391.33
2023-02-01T01:52:02.910Z,99380.83
2023-02-01T01:54:47.476Z,99379.02
2023-02-01T01:57:29.733Z,99375.69
2023-02-01T02:00:08.460Z,99382.23
2023-02-01T02:02:50.083Z,99385.16
2023-02-01T02:05:23.681Z,99386.09
2023-02-01T02:07:56.121Z,99386.72
2023-02-01T02:10:31.367Z,99387.11
2023-02-01T02:13:04.358Z,99381.45
2023-02-01T02:15:38.985Z,99379.55
2023-02-01T02:18:22.857Z,99380.69
2023-02-01T02:21:09.919Z,99375.29
2023-02-01T02:24:07.713Z,99372.36
2023-02-01T02:27:06.786Z,99373.38
2023-02-01T02:30:11.840Z,99375.03
2023-02-01T02:33:03.713Z,99371.44
2023-02-01T02:35:57.918Z,99364.39
2023-02-01T02:38:42.261Z,99371.20
2023-02-01T02:41:49.316Z,99367.36
2023-02-01T02:44:50.683Z,99369.40
2023-02-01T02:47:31.194Z,99359.88
2023-02-01T02:50:44.747Z,99356.95
2023-02-01T02:53:48.622Z,99358.60
2023-02-01T02:56:41.521Z,99374.53
2023-02-01T02:59:35.196Z,99376.84
2023-02-01T03:02:27.508Z,99375.92
2023-02-01T03:05:00.716Z,99370.69
2023-02-01T03:07:57.059Z,99365.55
2023-02-01T03:11:01.876Z,99364.27
2023-02-01T03:13:58.705Z,99366.07
2023-02-01T03:16:53.051Z,99366.70
2023-02-01T03:19:28.113Z,99359.27
2023-02-01T03:22:13.858Z,99362.06
2023-02-01T03:24:59.001Z,99363.88
2023-02-01T03:27:44.730Z,99349.75
2023-02-01T03:30:28.316Z,99354.48
2023-02-01T03:33:05.280Z,99347.19
2023-02-01T03:36:15.488Z,99356.80
2023-02-01T03:38:59.565Z,99352.95
2023-02-01T03:41:46.142Z,99358.88
2023-02-01T03:44:34.896Z,99352.83
2023-02-01T03:47:17.892Z,99355.39
2023-02-01T03:50:03.752Z,99357.83
2023-02-01T03:52:55.731Z,99359.77
2023-02-01T03:55:30.597Z,99360.52
2023-02-01T03:58:19.043Z,99365.79
2023-02-01T04:01:01.567Z,99366.55
2023-02-01T04:03:35.757Z,99366.55
2023-02-01T04:06:08.900Z,99369.52
2023-02-01T04:08:42.154Z,99371.32
2023-02-01T04:11:15.129Z,99379.52
2023-02-01T04:13:49.144Z,99385.04
2023-02-01T04:16:22.051Z,99385.66
2023-02-01T04:18:55.011Z,99382.61
2023-02-01T04:21:29.177Z,99383.89
2023-02-01T04:24:01.525Z,99380.93
2023-02-01T04:26:34.854Z,99375.53
2023-02-01T04:29:10.259Z,99378.36
2023-02-01T04:31:43.814Z,99377.08
2023-02-01T04:34:17.017Z,99376.45
2023-02-01T04:36:49.968Z,99378.49
2023-02-01T04:39:22.846Z,99381.95
2023-02-01T04:41:56.222Z,99382.08
2023-02-01T04:44:29.724Z,99378.89
2023-02-01T04:47:02.689Z,99383.13
2023-02-01T04:49:35.749Z,99384.41
2023-02-01T04:52:08.676Z,99384.64
2023-02-01T04:54:41.704Z,99388.23
2023-02-01T04:57:16.146Z,99397.08
2023-02-01T04:59:49.092Z,99402.61
2023-02-01T05:02:22.069Z,99401.36
2023-02-01T05:04:57.001Z,99399.42
2023-02-01T05:07:30.181Z,99406.23
2023-02-01T05:10:03.594Z,99401.98
2023-02-01T05:12:54.799Z,99407.25
2023-02-01T05:15:28.186Z,99406.86
2023-02-01T05:18:01.767Z,99402.38
2023-02-01T05:20:35.177Z,99403.14
2023-02-01T05:23:08.610Z,99410.97
2023-02-01T05:25:41.767Z,99417.91
2023-02-01T05:28:14.789Z,99416.50
2023-02-01T05:30:48.022Z,99424.07
2023-02-01T05:33:21.103Z,99426.64
2023-02-01T05:35:54.146Z,99429.59
2023-02-01T05:38:27.226Z,99419.59
2023-02-01T05:41:00.530Z,99416.11
2023-02-01T05:43:33.674Z,99424.47
2023-02-01T05:46:07.573Z,99421.14
2023-02-01T05:48:41.940Z,99433.19
2023-02-01T05:51:15.192Z,99441.16
2023-02-01T05:53:48.573Z,99432.95
2023-02-01T05:56:21.618Z,99429.99
2023-02-01T05:58:54.748Z,99428.97
2023-02-01T06:01:27.727Z,99424.49
2023-02-01T06:04:00.772Z,99422.55
2023-02-01T06:06:34.250Z,99431.66
2023-02-01T06:09:07.556Z,99434.77
2023-02-01T06:11:42.473Z,99435.03
2023-02-01T06:14:15.559Z,99439.01
2023-02-01T06:16:48.486Z,99446.81
2023-02-01T06:19:21.883Z,99451.69
2023-02-01T06:21:55.241Z,99453.89
2023-02-01T06:24:28.223Z,99448.98
2023-02-01T06:27:01.061Z,99452.61
2023-02-01T06:29:34.385Z,99451.69
2023-02-01T06:32:08.169Z,99452.34
2023-02-01T06:34:42.134Z,99455.14
2023-02-01T06:37:15.253Z,99452.34
2023-02-01T06:39:48.212Z,99457.70
2023-02-01T06:42:21.170Z,99451.69
2023-02-01T06:44:54.869Z,99452.84
2023-02-01T06:47:29.150Z,99452.87
2023-02-01T06:50:02.677Z,99451.95
2023-02-01T06:52:37.597Z,99459.28
2023-02-01T06:55:10.938Z,99455.03
2023-02-01T06:57:43.833Z,99459.81
2023-02-01T07:00:18.507Z,99462.52
2023-02-01T07:02:50.939Z,99462.52
2023-02-01T07:05:24.235Z,99455.56
2023-02-01T07:07:56.992Z,99458.53
2023-02-01T07:10:30.028Z,99463.27
2023-02-01T07:13:03.103Z,99466.98
2023-02-01T07:15:36.120Z,99466.36
2023-02-01T07:18:09.134Z,99469.59
2023-02-01T07:20:43.897Z,99468.44
2023-02-01T07:23:17.306Z,99466.75
2023-02-01T07:25:51.192Z,99467.15
2023-02-01T07:28:24.548Z,99466.23
2023-02-01T07:31:07.781Z,99469.84
2023-02-01T07:33:41.292Z,99475.08
2023-02-01T07:36:19.550Z,99471.62
2023-02-01T07:38:56.382Z,99467.80
2023-02-01T07:41:28.010Z,99468.42
2023-02-01T07:44:01.200Z,99462.15
2023-02-01T07:46:34.356Z,99461.48
2023-02-01T07:49:07.791Z,99466.61
2023-02-01T07:51:40.749Z,99459.94
2023-02-01T07:54:14.013Z,99461.22
2023-02-01T07:56:47.082Z,99461.87
2023-02-01T07:59:20.308Z,99472.41
2023-02-01T08:01:53.164Z,99470.72
2023-02-01T08:04:26.596Z,99469.70
2023-02-01T08:06:59.526Z,99471.75
2023-02-01T08:09:32.645Z,99468.56
2023-02-01T08:12:05.715Z,99470.35
2023-02-01T08:14:41.593Z,99471.37
2023-02-01T08:17:14.644Z,99471.88
2023-02-01T08:19:48.990Z,99473.16
2023-02-01T08:22:21.793Z,99471.62
2023-02-01T08:24:57.186Z,99468.39
2023-02-01T08:27:30.257Z,99471.73
2023-02-01T08:30:03.148Z,99469.41
2023-02-01T08:32:37.111Z,99468.23
2023-02-01T08:35:10.582Z,99466.43
2023-02-01T08:37:43.355Z,99462.55
2023-02-01T08:40:16.214Z,99465.38
2023-02-01T08:42:55.222Z,99455.36
2023-02-01T08:45:31.077Z,99449.20
2023-02-01T08:48:04.556Z,99454.22
2023-02-01T08:50:38.299Z,99451.38
2023-02-01T08:53:11.115Z,99447.37
2023-02-01T08:55:44.736Z,99451.20
2023-02-01T08:58:18.356Z,99445.81
2023-02-01T09:00:52.412Z,99445.55
2023-02-01T09:03:25.567Z,99440.25
2023-02-01T09:06:11.339Z,99435.63
2023-02-01T09:08:45.738Z,99432.41
2023-02-01T09:11:21.552Z,99424.81
2023-02-01T09:13:55.336Z,99423.53
2023-02-01T09:16:28.110Z,99420.13
2023-02-01T09:19:24.555Z,99422.03
2023-02-01T09:21:35.668Z,99417.37
2023-02-01T09:24:08.916Z,99410.01
2023-02-01T09:26:42.381Z,99411.66
2023-02-01T09:29:15.556Z,99412.67
2023-02-01T09:31:57.813Z,99411.50
2023-02-01T09:34:23.136Z,99405.47
2023-02-01T09:36:56.188Z,99402.73
2023-02-01T09:39:30.738Z,99411.74
2023-02-01T09:42:33.490Z,99406.63
2023-02-01T09:45:38.304Z,99404.58
2023-02-01T09:48:21.700Z,99402.72
2023-02-01T09:50:58.237Z,99401.31
2023-02-01T09:53:41.013Z,99399.94
2023-02-01T09:56:18.533Z,99396.72
2023-02-01T09:59:08.097Z,99389.25
2023-02-01T10:01:41.515Z,99391.91
2023-02-01T10:04:17.867Z,99397.70
2023-02-01T10:07:24.400Z,99388.69
2023-02-01T10:10:17.311Z,99393.16
2023-02-01T10:13:26.299Z,99385.15
2023-02-01T10:16:20.245Z,99381.37
2023-02-01T10:19:21.397Z,99383.78
2023-02-01T10:22:15.604Z,99381.61
2023-02-01T10:25:17.073Z,99381.69
2023-02-01T10:27:50.196Z,99382.28
2023-02-01T10:30:27.904Z,99378.33
2023-02-01T10:33:28.947Z,99375.86
2023-02-01T10:36:15.152Z,99377.09
2023-02-01T10:38:48.822Z,99373.47
2023-02-01T10:41:24.465Z,99373.81
2023-02-01T10:43:59.957Z,99372.65
2023-02-01T10:46:35.075Z,99367.38
2023-02-01T10:49:12.322Z,99360.48
2023-02-01T10:51:58.907Z,99359.00
2023-02-01T10:54:41.954Z,99359.47
2023-02-01T10:57:26.968Z,99358.12
2023-02-01T11:00:00.547Z,99357.95
2023-02-01T11:02:37.979Z,99360.06
2023-02-01T11:05:15.385Z,99356.59
2023-02-01T11:07:52.468Z,99352.62
2023-02-01T11:10:41.862Z,99349.92
2023-02-01T11:13:20.689Z,99348.27
2023-02-01T11:15:57.475Z,99347.09
2023-02-01T11:18:37.833Z,99346.29
2023-02-01T11:21:12.405Z,99342.71
2023-02-01T11:23:47.394Z,99340.08
2023-02-01T11:26:28.227Z,99336.98
2023-02-01T11:29:05.217Z,99332.34
2023-02-01T11:31:38.683Z,99341.48
2023-02-01T11:34:19.634Z,99345.89
2023-02-01T11:36:54.474Z,99344.79
2023-02-01T11:39:31.477Z,99341.55
2023-02-01T11:42:17.342Z,99340.52
2023-02-01T11:44:50.931Z,99346.35
2023-02-01T11:47:42.366Z,99344.66
2023-02-01T11:50:23.856Z,99347.76
2023-02-01T11:53:07.451Z,99343.66
2023-02-01T11:55:50.931Z,99340.98
2023-02-01T11:59:01.257Z,99338.33
2023-02-01T12:02:06.096Z,99342.44
2023-02-01T12:05:04.052Z,99347.23
2023-02-01T12:08:13.720Z,99350.98
2023-02-01T12:11:16.648Z,99348.97
2023-02-01T12:14:02.445Z,99346.16
2023-02-01T12:16:52.665Z,99347.44
2023-02-01T12:19:38.929Z,99351.55
2023-02-01T12:22:43.623Z,99349.27
2023-02-01T12:25:21.007Z,99351.23
2023-02-01T12:28:10.272Z,99351.23
2023-02-01T12:30:50.488Z,99352.33
2023-02-01T12:33:39.425Z,99355.34
2023-02-01T12:36:44.091Z,99367.05
2023-02-01T12:39:47.350Z,99361.02
2023-02-01T12:42:27.884Z,99360.09
2023-02-01T12:45:33.728Z,99364.56
2023-02-01T12:48:20.259Z,99368.46
2023-02-01T12:51:08.224Z,99367.17
2023-02-01T12:53:54.358Z,99360.49
2023-02-01T12:56:46.782Z,99361.27
2023-02-01T12:59:39.387Z,99365.92
2023-02-01T13:02:39.100Z,99362.83
2023-02-01T13:05:25.503Z,99364.40
2023-02-01T13:08:09.348Z,99368.53
2023-02-01T13:10:47.137Z,99361.98
2023-02-01T13:13:41.910Z,99364.80
2023-02-01T13:16:31.410Z,99370.63
2023-02-01T13:19:17.458Z,99371.11
2023-02-01T13:21:58.365Z,99365.84
2023-02-01T13:24:43.602Z,99371.35
2023-02-01T13:27:18.188Z,99368.50
2023-02-01T13:30:01.293Z,99361.78
2023-02-01T13:33:54.497Z,99369.51
2023-02-01T13:35:55.406Z,99370.95
2023-02-01T13:38:56.639Z,99370.67
2023-02-01T13:41:44.937Z,99372.36
2023-02-01T13:44:22.733Z,99373.25
2023-02-01T13:46:59.715Z,99374.17
2023-02-01T13:49:37.176Z,99378.03
2023-02-01T13:52:29.921Z,99372.88
2023-02-01T13:55:26.426Z,99380.48
2023-02-01T13:58:38.011Z,99380.12
2023-02-01T14:01:30.819Z,99384.77
2023-02-01T14:04:07.885Z,99380.15
2023-02-01T14:06:47.966Z,99384.32
2023-02-01T14:09:25.416Z,99384.32
2023-02-01T14:11:59.015Z,99375.80
2023-02-01T14:14:34.578Z,99382.88
2023-02-01T14:17:21.209Z,99378.38
2023-02-01T14:19:57.181Z,99387.02
2023-02-01T14:22:37.348Z,99384.84
2023-02-01T14:25:15.022Z,99383.16
2023-02-01T14:27:48.542Z,99381.10
2023-02-01T14:30:23.027Z,99387.66
2023-02-01T14:32:56.960Z,99383.27
2023-02-01T14:35:31.344Z,99385.73
2023-02-01T14:38:05.512Z,99389.98
2023-02-01T14:40:37.472Z,99390.38
2023-02-01T14:43:32.208Z,99395.67
2023-02-01T14:45:52.027Z,99400.57
2023-02-01T14:48:33.551Z,99398.25
2023-02-01T14:51:08.021Z,99393.23
2023-02-01T14:53:42.629Z,99399.93
2023-02-01T14:56:21.236Z,99401.49
2023-02-01T14:59:05.467Z,99405.73
2023-02-01T15:01:40.786Z,99407.42
2023-02-01T15:04:18.803Z,99415.27
2023-02-01T15:07:03.120Z,99408.96
2023-02-01T15:09:43.379Z,99408.16
2023-02-01T15:12:21.771Z,99409.33
2023-02-01T15:15:17.749Z,99414.84
2023-02-01T15:17:59.909Z,99412.17
2023-02-01T15:20:35.075Z,99416.29
2023-02-01T15:23:13.002Z,99421.70
2023-02-01T15:25:48.833Z,99419.02
2023-02-01T15:28:21.938Z,99419.90
2023-02-01T15:31:04.261Z,99419.80
2023-02-01T15:33:38.145Z,99419.90
2023-02-01T15:36:15.317Z,99420.82
2023-02-01T15:38:48.534Z,99424.00
2023-02-01T15:41:24.234Z,99426.84
2023-02-01T15:44:02.827Z,99424.55
2023-02-01T15:46:43.668Z,99425.04
2023-02-01T15:49:35.265Z,99430.44
2023-02-01T15:52:12.904Z,99429.80
2023-02-01T15:54:50.232Z,99440.97
2023-02-01T15:57:33.747Z,99439.56
2023-02-01T16:00:28.973Z,99444.09
2023-02-01T16:03:10.329Z,99447.95
2023-02-01T16:05:45.986Z,99443.96
2023-02-01T16:08:25.447Z,99450.39
2023-02-01T16:11:17.807Z,99451.80
2023-02-01T16:13:51.447Z,99454.50
2023-02-01T16:16:25.042Z,99454.23
2023-02-01T16:18:57.705Z,99450.77
2023-02-01T16:21:30.793Z,99450.38
2023-02-01T16:24:06.917Z,99462.95
2023-02-01T16:26:41.744Z,99454.86
2023-02-01T16:29:16.169Z,99457.96
2023-02-01T16:31:49.043Z,99452.69
2023-02-01T16:34:22.572Z,99449.59
2023-02-01T16:36:57.051Z,99450.54
2023-02-01T16:39:31.145Z,99450.92
2023-02-01T16:42:09.325Z,99455.95
2023-02-01T16:44:42.686Z,99456.85
2023-02-01T16:47:23.609Z,99454.03
2023-02-01T16:49:57.104Z,99455.45
2023-02-01T16:52:30.512Z,99456.73
2023-02-01T16:55:03.795Z,99453.38
2023-02-01T16:57:37.124Z,99452.75
2023-02-01T17:00:23.886Z,99455.69
2023-02-01T17:02:49.744Z,99458.39
2023-02-01T17:05:23.464Z,99460.95
2023-02-01T17:07:57.618Z,99465.08
2023-02-01T17:10:33.814Z,99467.92
2023-02-01T17:13:06.029Z,99467.26
2023-02-01T17:15:39.065Z,99465.47
2023-02-01T17:18:16.269Z,99466.48
2023-02-01T17:20:49.036Z,99465.05
2023-02-01T17:23:22.852Z,99469.44
2023-02-01T17:25:55.729Z,99465.58
2023-02-01T17:28:29.534Z,99466.34
2023-02-01T17:31:02.758Z,99465.98
2023-02-01T17:33:38.335Z,99466.87
2023-02-01T17:36:15.789Z,99469.69
2023-02-01T17:39:03.701Z,99465.70
2023-02-01T17:41:23.358Z,99474.58
2023-02-01T17:43:56.504Z,99470.20
2023-02-01T17:46:29.395Z,99467.50
2023-02-01T17:49:03.967Z,99465.72
2023-02-01T17:51:37.379Z,99470.98
2023-02-01T17:54:17.296Z,99467.14
2023-02-01T17:56:50.050Z,99467.77
2023-02-01T17:59:23.274Z,99474.06
2023-02-01T18:01:57.730Z,99463.66
2023-02-01T18:04:30.625Z,99463.53
2023-02-01T18:07:03.920Z,99466.64
2023-02-01T18:09:37.318Z,99464.19
2023-02-01T18:12:23.712Z,99464.81
2023-02-01T18:14:57.614Z,99462.52
2023-02-01T18:17:30.689Z,99463.94
2023-02-01T18:20:03.591Z,99462.76
2023-02-01T18:22:36.483Z,99466.48
2023-02-01T18:25:17.420Z,99463.68
2023-02-01T18:27:55.289Z,99471.75
2023-02-01T18:30:31.900Z,99470.86
2023-02-01T18:33:05.687Z,99470.34
2023-02-01T18:35:38.752Z,99469.06
2023-02-01T18:38:12.827Z,99467.91
2023-02-01T18:40:55.083Z,99470.61
2023-02-01T18:43:28.125Z,99471.75
2023-02-01T18:46:01.103Z,99464.17
2023-02-01T18:48:34.705Z,99468.68
2023-02-01T18:51:08.078Z,99475.99
2023-02-01T18:53:41.281Z,99479.09
2023-02-01T18:56:15.656Z,99476.13
2023-02-01T18:58:48.559Z,99475.12
2023-02-01T19:01:23.270Z,99479.47
2023-02-01T19:03:59.178Z,99484.24
2023-02-01T19:06:30.810Z,99482.83
2023-02-01T19:09:03.967Z,99481.91
2023-02-01T19:11:37.042Z,99485.27
2023-02-01T19:14:10.041Z,99487.97
2023-02-01T19:16:43.459Z,99486.68
2023-02-01T19:19:16.468Z,99491.42
2023-02-01T19:21:51.014Z,99482.56
2023-02-01T19:24:25.612Z,99489.74
2023-02-01T19:26:58.711Z,99490.53
2023-02-01T19:29:32.433Z,99486.91
2023-02-01T19:32:06.563Z,99491.30
2023-02-01T19:34:40.253Z,99487.44
2023-02-01T19:37:13.573Z,99491.69
2023-02-01T19:39:46.736Z,99494.00
2023-02-01T19:42:19.994Z,99500.03
2023-02-01T19:44:53.375Z,99499.41
2023-02-01T19:47:27.082Z,99499.14
2023-02-01T19:50:00.526Z,99506.73
2023-02-01T19:52:34.682Z,99511.47
2023-02-01T19:55:09.119Z,99514.14
2023-02-01T19:57:41.180Z,99509.40
2023-02-01T20:00:17.275Z,99508.64
2023-02-01T20:02:50.773Z,99502.09
2023-02-01T20:05:24.180Z,99499.52
2023-02-01T20:07:57.579Z,99504.27
2023-02-01T20:10:30.979Z,99491.81
2023-02-01T20:13:03.969Z,99492.44
2023-02-01T20:15:37.281Z,99500.93
2023-02-01T20:18:10.861Z,99495.39
2023-02-01T20:20:44.119Z,99496.31
2023-02-01T20:23:18.974Z,99493.75
2023-02-01T20:25:52.850Z,99496.31
2023-02-01T20:28:26.075Z,99497.83
2023-02-01T20:30:59.817Z,99493.48
2023-02-01T20:33:34.257Z,99494.77
2023-02-01T20:36:07.952Z,99500.30
2023-02-01T20:38:41.003Z,99494.50
2023-02-01T20:41:14.173Z,99497.07
2023-02-01T20:43:47.218Z,99493.34
2023-02-01T20:46:20.543Z,99493.61
2023-02-01T20:48:53.601Z,99495.91
2023-02-01T20:51:26.592Z,99501.71
2023-02-01T20:53:59.495Z,99496.05
2023-02-01T20:56:32.363Z,99495.78
2023-02-01T20:59:06.867Z,99490.91
2023-02-01T21:01:41.997Z,99493.22
2023-02-01T21:04:16.880Z,99497.21
2023-02-01T21:06:50.494Z,99491.91
2023-02-01T21:09:25.020Z,99499.88
2023-02-01T21:11:57.766Z,99501.53
2023-02-01T21:14:31.163Z,99505.25
2023-02-01T21:17:04.581Z,99514.10
2023-02-01T21:19:44.250Z,99507.55
2023-02-01T21:22:18.010Z,99516.00
2023-02-01T21:24:50.657Z,99528.44
2023-02-01T21:27:23.680Z,99524.94
2023-02-01T21:29:56.698Z,99530.31
2023-02-01T21:32:30.292Z,99527.33
2023-02-01T21:35:04.173Z,99532.81
2023-02-01T21:37:38.682Z,99534.16
2023-02-01T21:40:13.239Z,99539.16
2023-02-01T21:42:46.461Z,99535.96
2023-02-01T21:45:19.807Z,99541.84
2023-02-01T21:47:52.994Z,99550.55
2023-02-01T21:50:25.895Z,99550.78
2023-02-01T21:52:59.514Z,99555.50
2023-02-01T21:55:32.465Z,99553.94
2023-02-01T21:58:06.937Z,99556.34
2023-02-01T22:00:40.265Z,99561.52
2023-02-01T22:03:14.067Z,99560.69
2023-02-01T22:05:51.199Z,99565.78
2023-02-01T22:08:24.072Z,99565.36
2023-02-01T22:10:59.455Z,99557.06
2023-02-01T22:13:33.649Z,99560.19
2023-02-01T22:16:07.011Z,99567.13
2023-02-01T22:18:40.317Z,99564.70
2023-02-01T22:21:13.365Z,99564.23
2023-02-01T22:23:46.639Z,99571.06
2023-02-01T22:26:19.603Z,99568.61
2023-02-01T22:28:52.697Z,99570.11
2023-02-01T22:31:25.855Z,99570.25
2023-02-01T22:33:58.874Z,99569.36
2023-02-01T22:36:33.328Z,99567.41
2023-02-01T22:39:06.568Z,99569.47
2023-02-01T22:41:39.827Z,99571.50
2023-02-01T22:44:13.095Z,99568.41
2023-02-01T22:46:45.993Z,99564.67
2023-02-01T22:49:19.087Z,99566.70
2023-02-01T22:51:52.664Z,99566.70
2023-02-01T22:54:25.383Z,99565.56
2023-02-01T22:57:00.338Z,99560.94
2023-02-01T22:59:34.180Z,99568.34
2023-02-01T23:02:07.518Z,99563.83
2023-02-01T23:04:40.963Z,99564.36
2023-02-01T23:07:15.176Z,99561.38
2023-02-01T23:09:48.205Z,99561.84
2023-02-01T23:12:21.204Z,99565.16
2023-02-01T23:15:06.702Z,99567.37
2023-02-01T23:17:40.201Z,99566.30
2023-02-01T23:20:17.768Z,99571.88
2023-02-01T23:22:51.691Z,99561.89
2023-02-01T23:25:24.830Z,99561.59
2023-02-01T23:27:58.348Z,99561.06
2023-02-01T23:30:31.666Z,99560.85
2023-02-01T23:33:04.680Z,99555.23
2023-02-01T23:35:37.944Z,99552.95
2023-02-01T23:38:10.539Z,99550.67
2023-02-01T23:40:43.337Z,99547.86
2023-02-01T23:43:35.141Z,99544.52
2023-02-01T23:46:08.254Z,99536.77
2023-02-01T23:48:41.442Z,99541.11
2023-02-01T23:51:14.964Z,99536.30
2023-02-01T23:53:48.170Z,99535.52
2023-02-01T23:56:32.387Z,99534.09
2023-02-01T23:59:10.479Z,99527.77
